Time;durP1;ratioP1;P1;durP2;ratioP2;P2;SDS_P1;SDS_P2;PMS_P1;PMS_P2;Temp;Humidity;BMP_temperature;BMP_pressure;BME280_temperature;BME280_humidity;BME280_pressure;Samples;Min_cycle;Max_cycle;Signal;HPM_P1;HPM_P2
2022/02/11 00:09:39;;;;;;;10.70;7.45;;;;;;;;;;10346911;28;20026;-55
2022/02/11 00:14:55;;;;;;;12.35;7.75;;;;;;;;;;10336016;28;20041;-56
2022/02/11 00:19:56;;;;;;;14.95;8.30;;;;;;;;;;10342316;28;20061;-55
2022/02/11 00:24:56;;;;;;;13.45;8.30;;;;;;;;;;10344959;28;20137;-55
2022/02/11 00:35:10;;;;;;;14.55;8.63;;;;;;;;;;10362191;28;20467;-55
2022/02/11 00:40:42;;;;;;;11.63;7.57;;;;;;;;;;10361483;28;20273;-58
2022/02/11 00:45:52;;;;;;;17.20;8.27;;;;;;;;;;10356366;28;20354;-56
2022/02/11 01:06:50;;;;;;;12.05;8.07;;;;;;;;;;10339731;28;19913;-57
2022/02/11 01:11:53;;;;;;;11.40;7.78;;;;;;;;;;10373959;28;20124;-58
2022/02/11 01:16:57;;;;;;;10.45;7.30;;;;;;;;;;10381200;28;20041;-57
2022/02/11 01:22:12;;;;;;;12.82;7.82;;;;;;;;;;10380697;28;20416;-58
2022/02/11 01:32:26;;;;;;;19.57;8.63;;;;;;;;;;10380557;28;20026;-58
2022/02/11 01:37:52;;;;;;;12.43;8.07;;;;;;;;;;10380645;28;20455;-58
2022/02/11 01:53:48;;;;;;;13.07;7.03;;;;;;;;;;10386144;28;20053;-57
2022/02/11 02:20:27;;;;;;;11.50;7.07;;;;;;;;;;10363541;28;20100;-56
2022/02/11 02:57:06;;;;;;;9.57;6.18;;;;;;;;;;10371393;28;20042;-57
2022/02/11 03:49:53;;;;;;;9.80;6.00;;;;;;;;;;10369677;28;19921;-56
2022/02/11 05:03:58;;;;;;;8.20;5.40;;;;;;;;;;10366216;28;20805;-58
2022/02/11 05:09:02;;;;;;;8.40;5.60;;;;;;;;;;10362689;28;20034;-57
2022/02/11 05:14:02;;;;;;;8.00;5.80;;;;;;;;;;10356681;28;20473;-58
2022/02/11 05:19:04;;;;;;;7.75;5.50;;;;;;;;;;10367125;28;20042;-58
2022/02/11 05:24:05;;;;;;;7.37;5.00;;;;;;;;;;10363432;28;20072;-58
2022/02/11 05:29:05;;;;;;;9.57;5.10;;;;;;;;;;10367086;28;20489;-58
2022/02/11 05:34:06;;;;;;;10.47;5.60;;;;;;;;;;10359709;28;20401;-58
2022/02/11 05:39:06;;;;;;;6.25;5.20;;;;;;;;;;10363692;28;20464;-57
2022/02/11 05:44:06;;;;;;;9.65;5.80;;;;;;;;;;10374172;28;20495;-58
2022/02/11 05:49:07;;;;;;;5.88;5.05;;;;;;;;;;10374316;28;20078;-58
2022/02/11 05:54:07;;;;;;;8.20;4.77;;;;;;;;;;10373707;28;20030;-58
2022/02/11 05:59:08;;;;;;;7.10;5.18;;;;;;;;;;10373562;28;20818;-58
2022/02/11 06:04:08;;;;;;;6.88;4.88;;;;;;;;;;10373242;28;20022;-56
2022/02/11 06:09:08;;;;;;;8.00;5.70;;;;;;;;;;10369552;28;20224;-57
2022/02/11 06:14:09;;;;;;;6.60;5.10;;;;;;;;;;10372597;28;20802;-54
2022/02/11 06:19:09;;;;;;;6.40;4.87;;;;;;;;;;10338285;28;20484;-55
2022/02/11 06:24:10;;;;;;;8.32;5.32;;;;;;;;;;10372697;28;20120;-58
2022/02/11 06:29:11;;;;;;;9.93;5.13;;;;;;;;;;10372292;28;20547;-57
2022/02/11 06:34:11;;;;;;;9.57;5.20;;;;;;;;;;10371435;28;20469;-57
2022/02/11 06:39:12;;;;;;;7.38;4.90;;;;;;;;;;10361805;28;20087;-57
2022/02/11 06:44:12;;;;;;;6.63;4.80;;;;;;;;;;10365300;28;20026;-57
2022/02/11 06:49:13;;;;;;;9.25;5.10;;;;;;;;;;10371391;28;20492;-57
2022/02/11 06:54:13;;;;;;;6.53;4.33;;;;;;;;;;10371837;28;20026;-58
2022/02/11 06:59:13;;;;;;;7.47;4.70;;;;;;;;;;10369031;28;20472;-59
2022/02/11 07:04:16;;;;;;;5.53;4.43;;;;;;;;;;10380183;28;20446;-58
2022/02/11 07:09:16;;;;;;;5.63;4.35;;;;;;;;;;10387431;28;20059;-59
2022/02/11 07:14:17;;;;;;;6.43;4.90;;;;;;;;;;10376194;28;20030;-57
2022/02/11 07:19:17;;;;;;;6.80;4.60;;;;;;;;;;10368923;28;20110;-56
2022/02/11 07:24:17;;;;;;;5.07;4.30;;;;;;;;;;10370307;28;20455;-58
2022/02/11 07:29:18;;;;;;;7.10;5.00;;;;;;;;;;10369201;28;21107;-59
2022/02/11 07:34:18;;;;;;;10.10;5.80;;;;;;;;;;10367257;28;20037;-59
2022/02/11 07:39:19;;;;;;;30.70;7.05;;;;;;;;;;10369733;28;20578;-59
2022/02/11 07:44:19;;;;;;;15.37;6.80;;;;;;;;;;10373531;28;20026;-59
2022/02/11 07:49:19;;;;;;;16.60;6.80;;;;;;;;;;10364585;28;20479;-59
2022/02/11 07:54:20;;;;;;;18.30;7.20;;;;;;;;;;10368002;28;20429;-58
2022/02/11 07:59:21;;;;;;;14.05;7.25;;;;;;;;;;10365669;28;20389;-59
2022/02/11 08:04:21;;;;;;;16.17;7.50;;;;;;;;;;10360186;28;20117;-57
2022/02/11 08:09:22;;;;;;;14.40;8.27;;;;;;;;;;10379687;28;20040;-53
2022/02/11 08:14:22;;;;;;;15.17;8.70;;;;;;;;;;10371722;28;20038;-58
2022/02/11 08:19:23;;;;;;;20.27;8.03;;;;;;;;;;10365389;28;20592;-59
2022/02/11 08:24:23;;;;;;;26.13;8.40;;;;;;;;;;10364536;28;20405;-60
2022/02/11 08:29:25;;;;;;;16.70;7.80;;;;;;;;;;10359583;28;20112;-59
2022/02/11 08:34:25;;;;;;;17.42;8.10;;;;;;;;;;10368911;28;20456;-60
2022/02/11 08:39:26;;;;;;;17.63;7.57;;;;;;;;;;10386348;28;20033;-60
2022/02/11 08:44:26;;;;;;;18.70;8.98;;;;;;;;;;10390675;28;20025;-62
2022/02/11 08:49:26;;;;;;;14.63;8.00;;;;;;;;;;10382970;28;20062;-60
2022/02/11 08:54:27;;;;;;;18.38;7.90;;;;;;;;;;10372549;28;20028;-59
2022/02/11 08:59:27;;;;;;;14.80;7.70;;;;;;;;;;10356405;28;20527;-59
2022/02/11 09:04:28;;;;;;;12.07;7.05;;;;;;;;;;10355941;28;20049;-59
2022/02/11 09:09:28;;;;;;;13.87;7.67;;;;;;;;;;10354431;28;20037;-59
2022/02/11 09:14:28;;;;;;;9.87;6.73;;;;;;;;;;10372378;28;20529;-60
2022/02/11 09:19:29;;;;;;;10.55;7.53;;;;;;;;;;10375792;28;20113;-60
2022/02/11 09:24:29;;;;;;;12.03;7.43;;;;;;;;;;10374907;28;20045;-61
2022/02/11 09:29:30;;;;;;;12.32;8.00;;;;;;;;;;10374997;28;21041;-59
2022/02/11 09:34:32;;;;;;;10.03;7.30;;;;;;;;;;10374521;28;20061;-59
2022/02/11 09:39:33;;;;;;;9.32;7.20;;;;;;;;;;10374559;28;21005;-60
2022/02/11 09:44:33;;;;;;;12.90;7.20;;;;;;;;;;10373477;28;20069;-59
2022/02/11 09:49:34;;;;;;;13.63;7.65;;;;;;;;;;10373195;28;20486;-61
2022/02/11 09:54:34;;;;;;;14.83;7.40;;;;;;;;;;10374356;28;20030;-60
2022/02/11 09:59:35;;;;;;;15.85;7.78;;;;;;;;;;10374146;28;20551;-60
2022/02/11 10:04:35;;;;;;;17.10;9.05;;;;;;;;;;10373452;28;20018;-59
2022/02/11 10:09:36;;;;;;;12.07;7.85;;;;;;;;;;10372356;28;20128;-59
2022/02/11 10:14:40;;;;;;;12.05;7.47;;;;;;;;;;10370458;28;20030;-59
2022/02/11 10:19:50;;;;;;;12.27;7.55;;;;;;;;;;10368297;28;20109;-59
2022/02/11 10:24:53;;;;;;;12.55;8.43;;;;;;;;;;10370103;28;20072;-60
2022/02/11 10:29:58;;;;;;;11.10;7.25;;;;;;;;;;10369092;28;20037;-59
2022/02/11 10:34:59;;;;;;;11.93;7.13;;;;;;;;;;10370654;28;20036;-61
2022/02/11 10:40:00;;;;;;;17.45;7.68;;;;;;;;;;10366041;28;20514;-60
2022/02/11 10:45:37;;;;;;;11.43;7.30;;;;;;;;;;10353291;28;20370;-59
2022/02/11 10:50:38;;;;;;;11.10;7.60;;;;;;;;;;10365638;28;20485;-60
2022/02/11 10:55:49;;;;;;;10.10;7.00;;;;;;;;;;10364794;28;20030;-59
2022/02/11 11:00:50;;;;;;;13.45;6.93;;;;;;;;;;10372623;28;20021;-59
2022/02/11 11:05:51;;;;;;;14.82;7.00;;;;;;;;;;10380215;28;20022;-59
2022/02/11 11:10:52;;;;;;;13.93;7.70;;;;;;;;;;10376420;28;20313;-61
2022/02/11 11:15:54;;;;;;;13.45;7.43;;;;;;;;;;10384333;28;20030;-60
2022/02/11 11:20:56;;;;;;;10.48;6.85;;;;;;;;;;10370189;28;20509;-59
2022/02/11 11:26:04;;;;;;;11.48;6.40;;;;;;;;;;10385304;28;20038;-60
2022/02/11 11:31:26;;;;;;;10.32;7.82;;;;;;;;;;10367765;28;20069;-59
2022/02/11 11:36:33;;;;;;;10.40;6.50;;;;;;;;;;10363060;28;20029;-59
2022/02/11 11:41:35;;;;;;;10.98;6.78;;;;;;;;;;10351613;28;20037;-59
2022/02/11 11:46:35;;;;;;;10.63;6.70;;;;;;;;;;10364872;28;20033;-59
2022/02/11 11:51:35;;;;;;;11.57;6.93;;;;;;;;;;10372888;28;20587;-59
2022/02/11 11:56:37;;;;;;;10.07;6.63;;;;;;;;;;10379616;28;20042;-59
2022/02/11 12:02:00;;;;;;;11.07;6.72;;;;;;;;;;10390559;28;20121;-59
2022/02/11 12:07:05;;;;;;;9.40;6.47;;;;;;;;;;10362741;28;20115;-62
2022/02/11 12:12:07;;;;;;;9.13;6.28;;;;;;;;;;10396531;28;20498;-59
2022/02/11 12:17:10;;;;;;;12.15;6.93;;;;;;;;;;10374691;28;20511;-60
2022/02/11 12:22:12;;;;;;;9.43;7.03;;;;;;;;;;10393901;28;20136;-60
2022/02/11 12:27:23;;;;;;;10.32;7.13;;;;;;;;;;10366713;28;20039;-61
2022/02/11 12:32:26;;;;;;;12.90;7.63;;;;;;;;;;10367811;28;20444;-61
2022/02/11 12:37:29;;;;;;;10.48;7.22;;;;;;;;;;10369155;28;20148;-61
2022/02/11 12:42:30;;;;;;;14.23;7.35;;;;;;;;;;10392059;28;20107;-59
2022/02/11 12:47:35;;;;;;;11.23;6.55;;;;;;;;;;10373774;28;20043;-59
2022/02/11 12:52:36;;;;;;;9.13;6.47;;;;;;;;;;10373924;28;20048;-59
2022/02/11 12:57:41;;;;;;;15.18;6.75;;;;;;;;;;10365134;28;20527;-60
2022/02/11 13:02:45;;;;;;;10.30;6.68;;;;;;;;;;10355945;28;20478;-59
2022/02/11 13:07:47;;;;;;;24.48;7.13;;;;;;;;;;10330176;28;20026;-59
2022/02/11 13:12:50;;;;;;;13.07;6.55;;;;;;;;;;10361498;28;20054;-60
2022/02/11 13:17:51;;;;;;;12.23;6.97;;;;;;;;;;10366435;28;20188;-61
2022/02/11 13:22:51;;;;;;;17.48;6.70;;;;;;;;;;10364863;28;20455;-59
2022/02/11 13:27:53;;;;;;;14.60;7.00;;;;;;;;;;10364419;28;20068;-59
2022/02/11 13:32:55;;;;;;;15.30;6.50;;;;;;;;;;10361347;28;20463;-63
2022/02/11 13:37:59;;;;;;;39.97;7.82;;;;;;;;;;10368737;28;20033;-63
2022/02/11 13:43:00;;;;;;;54.10;9.30;;;;;;;;;;10385891;28;20563;-58
2022/02/11 13:48:07;;;;;;;52.20;9.30;;;;;;;;;;10364791;28;20042;-60
2022/02/11 13:53:09;;;;;;;42.38;9.15;;;;;;;;;;10351976;28;20573;-59
2022/02/11 13:58:14;;;;;;;34.30;8.98;;;;;;;;;;10358841;28;20037;-60
2022/02/11 14:03:26;;;;;;;35.28;8.52;;;;;;;;;;10364400;28;20030;-59
2022/02/11 14:08:41;;;;;;;25.55;6.88;;;;;;;;;;10350324;28;20500;-60
2022/02/11 14:13:42;;;;;;;22.13;7.53;;;;;;;;;;10345162;28;20029;-59
2022/02/11 14:18:43;;;;;;;24.55;7.50;;;;;;;;;;10355922;28;20082;-59
2022/02/11 14:23:44;;;;;;;25.15;7.20;;;;;;;;;;10363226;28;20402;-59
2022/02/11 14:28:44;;;;;;;20.83;6.65;;;;;;;;;;10358714;28;20034;-59
2022/02/11 14:33:45;;;;;;;19.52;6.88;;;;;;;;;;10371158;28;20026;-62
2022/02/11 14:38:45;;;;;;;26.50;7.72;;;;;;;;;;10365806;28;20435;-58
2022/02/11 14:43:45;;;;;;;15.97;7.30;;;;;;;;;;10371908;28;20075;-60
2022/02/11 14:48:46;;;;;;;16.08;6.35;;;;;;;;;;10366217;28;20043;-59
2022/02/11 14:53:46;;;;;;;22.58;7.40;;;;;;;;;;10367446;28;20034;-59
2022/02/11 14:58:47;;;;;;;13.73;6.20;;;;;;;;;;10370367;28;20419;-59
2022/02/11 15:03:47;;;;;;;12.50;6.90;;;;;;;;;;10353731;28;20461;-64
2022/02/11 15:08:47;;;;;;;16.83;6.63;;;;;;;;;;10380391;28;20036;-59
2022/02/11 15:13:48;;;;;;;14.93;5.90;;;;;;;;;;10378676;28;21021;-58
2022/02/11 15:18:48;;;;;;;13.98;5.93;;;;;;;;;;10369053;28;20074;-59
2022/02/11 15:23:48;;;;;;;16.40;6.80;;;;;;;;;;10382600;28;20050;-65
2022/02/11 15:28:49;;;;;;;11.87;6.30;;;;;;;;;;10365379;28;20522;-62
2022/02/11 15:33:50;;;;;;;11.73;6.50;;;;;;;;;;10392161;28;20029;-60
2022/02/11 15:38:51;;;;;;;13.07;6.50;;;;;;;;;;10402927;28;20481;-61
2022/02/11 15:43:51;;;;;;;9.68;5.60;;;;;;;;;;10391265;28;20022;-68
2022/02/11 15:48:51;;;;;;;16.20;6.27;;;;;;;;;;10368650;28;20026;-59
2022/02/11 15:53:52;;;;;;;13.80;6.10;;;;;;;;;;10371296;28;20460;-59
2022/02/11 15:58:52;;;;;;;12.97;5.77;;;;;;;;;;10386512;28;20493;-66
2022/02/11 16:03:52;;;;;;;17.70;6.73;;;;;;;;;;10370733;28;20038;-59
2022/02/11 16:08:53;;;;;;;15.53;5.90;;;;;;;;;;10366884;28;20038;-66
2022/02/11 16:13:54;;;;;;;10.82;6.20;;;;;;;;;;10379695;28;20470;-62
2022/02/11 16:18:55;;;;;;;10.60;5.47;;;;;;;;;;10368340;28;20113;-59
2022/02/11 16:23:56;;;;;;;13.70;5.50;;;;;;;;;;10371688;28;20397;-60
2022/02/11 16:28:56;;;;;;;13.43;5.68;;;;;;;;;;10367526;28;20038;-59
2022/02/11 16:33:57;;;;;;;11.90;5.00;;;;;;;;;;10364551;28;20033;-59
2022/02/11 16:38:58;;;;;;;17.33;5.60;;;;;;;;;;10365571;28;20610;-60
2022/02/11 16:43:58;;;;;;;12.10;5.80;;;;;;;;;;10367866;28;20603;-59
2022/02/11 16:48:58;;;;;;;11.13;5.00;;;;;;;;;;10366659;28;20075;-59
2022/02/11 16:53:59;;;;;;;11.07;5.60;;;;;;;;;;10367064;28;20977;-59
2022/02/11 16:58:59;;;;;;;13.05;5.82;;;;;;;;;;10362618;28;20943;-60
2022/02/11 17:04:01;;;;;;;15.88;7.68;;;;;;;;;;10348769;28;20559;-60
2022/02/11 17:09:02;;;;;;;16.90;7.93;;;;;;;;;;10362745;28;20030;-60
2022/02/11 17:14:03;;;;;;;26.23;8.05;;;;;;;;;;10357207;28;20096;-59
2022/02/11 17:19:03;;;;;;;19.85;8.38;;;;;;;;;;10350012;28;20030;-59
2022/02/11 17:24:04;;;;;;;15.43;8.07;;;;;;;;;;10346252;28;20045;-58
2022/02/11 17:29:04;;;;;;;17.20;7.93;;;;;;;;;;10356989;28;20489;-58
2022/02/11 17:34:06;;;;;;;22.07;9.30;;;;;;;;;;10354488;28;20033;-63
2022/02/11 17:39:07;;;;;;;15.27;7.35;;;;;;;;;;10355050;28;20494;-58
2022/02/11 17:44:07;;;;;;;16.98;8.10;;;;;;;;;;10360543;28;20029;-59
2022/02/11 17:49:08;;;;;;;17.08;8.38;;;;;;;;;;10358958;28;20034;-58
2022/02/11 17:54:14;;;;;;;13.52;7.30;;;;;;;;;;10358247;28;20103;-58
2022/02/11 17:59:15;;;;;;;13.45;7.35;;;;;;;;;;10353474;28;20031;-49
2022/02/11 18:04:16;;;;;;;17.58;7.93;;;;;;;;;;10366254;28;20112;-59
2022/02/11 18:09:16;;;;;;;17.75;7.60;;;;;;;;;;10364734;28;20110;-59
2022/02/11 18:14:17;;;;;;;20.00;7.67;;;;;;;;;;10354431;28;20034;-59
2022/02/11 18:19:17;;;;;;;16.17;7.60;;;;;;;;;;10355624;28;20869;-59
2022/02/11 18:24:17;;;;;;;17.27;7.60;;;;;;;;;;10370776;28;20480;-59
2022/02/11 18:29:19;;;;;;;23.03;7.47;;;;;;;;;;10368710;28;20479;-59
2022/02/11 18:34:19;;;;;;;20.52;7.63;;;;;;;;;;10372242;28;20513;-58
2022/02/11 18:39:22;;;;;;;18.27;7.60;;;;;;;;;;10350040;28;20092;-59
2022/02/11 18:44:23;;;;;;;17.85;8.63;;;;;;;;;;10353595;28;20045;-59
2022/02/11 18:49:23;;;;;;;16.40;8.50;;;;;;;;;;10360027;28;20112;-58
2022/02/11 18:54:23;;;;;;;19.27;9.37;;;;;;;;;;10349987;28;20025;-59
2022/02/11 19:04:42;;;;;;;20.33;8.73;;;;;;;;;;10351796;28;20030;-61
2022/02/11 19:09:43;;;;;;;18.07;9.33;;;;;;;;;;10358880;28;20030;-62
2022/02/11 19:14:43;;;;;;;19.20;9.75;;;;;;;;;;10359775;28;20045;-59
2022/02/11 19:19:44;;;;;;;14.63;7.93;;;;;;;;;;10354758;28;20121;-59
2022/02/11 19:24:49;;;;;;;21.60;9.75;;;;;;;;;;10357943;28;20506;-59
2022/02/11 19:29:50;;;;;;;17.77;9.60;;;;;;;;;;10353584;28;20038;-59
2022/02/11 19:34:51;;;;;;;21.42;9.45;;;;;;;;;;10346273;28;20060;-59
2022/02/11 19:39:52;;;;;;;19.23;9.50;;;;;;;;;;10352343;28;20024;-59
2022/02/11 19:44:52;;;;;;;15.18;9.18;;;;;;;;;;10346546;28;20029;-59
2022/02/11 19:49:53;;;;;;;16.97;9.60;;;;;;;;;;10331550;28;20034;-61
2022/02/11 19:54:53;;;;;;;21.60;9.73;;;;;;;;;;10337915;28;20463;-58
2022/02/11 19:59:54;;;;;;;20.73;10.30;;;;;;;;;;10357800;28;20026;-54
2022/02/11 20:04:56;;;;;;;22.75;9.85;;;;;;;;;;10341169;28;20030;-54
2022/02/11 20:09:56;;;;;;;17.63;9.40;;;;;;;;;;10358727;28;20026;-58
2022/02/11 20:14:56;;;;;;;19.37;9.33;;;;;;;;;;10357244;28;20040;-58
2022/02/11 20:19:58;;;;;;;22.73;10.53;;;;;;;;;;10353185;28;20842;-59
2022/02/11 20:24:59;;;;;;;16.63;10.25;;;;;;;;;;10351323;28;20025;-56
2022/02/11 20:29:59;;;;;;;30.13;11.07;;;;;;;;;;10347384;28;20504;-58
2022/02/11 20:35:00;;;;;;;35.65;12.57;;;;;;;;;;10354884;28;20633;-58
2022/02/11 20:40:00;;;;;;;31.85;12.05;;;;;;;;;;10355254;28;20497;-59
2022/02/11 20:45:01;;;;;;;27.58;12.00;;;;;;;;;;10352502;28;20026;-62
2022/02/11 20:55:21;;;;;;;;;;;;;;;;;;10354419;28;20034;-59
2022/02/11 21:00:22;;;;;;;24.83;11.15;;;;;;;;;;10355480;28;19921;-58
2022/02/11 21:05:23;;;;;;;25.17;11.57;;;;;;;;;;10356482;28;20034;-59
2022/02/11 21:10:23;;;;;;;27.07;11.70;;;;;;;;;;10364415;28;20424;-62
2022/02/11 21:15:24;;;;;;;20.58;10.95;;;;;;;;;;10367780;28;20471;-59
2022/02/11 21:20:24;;;;;;;27.52;11.85;;;;;;;;;;10369756;28;21054;-61
2022/02/11 21:25:24;;;;;;;23.00;10.97;;;;;;;;;;10368505;28;20102;-59
2022/02/11 21:30:28;;;;;;;30.98;12.07;;;;;;;;;;10373490;28;20846;-60
2022/02/11 21:35:29;;;;;;;18.58;11.15;;;;;;;;;;10363636;28;20022;-60
2022/02/11 21:40:34;;;;;;;22.27;11.30;;;;;;;;;;10373272;28;20124;-62
2022/02/11 21:45:34;;;;;;;22.45;10.70;;;;;;;;;;10374907;28;20042;-58
2022/02/11 21:50:35;;;;;;;18.38;11.32;;;;;;;;;;10374374;28;20091;-59
2022/02/11 21:55:38;;;;;;;30.53;12.07;;;;;;;;;;10345650;28;20457;-60
2022/02/11 22:00:39;;;;;;;31.25;12.05;;;;;;;;;;10368457;28;20468;-62
2022/02/11 22:05:40;;;;;;;21.48;11.77;;;;;;;;;;10358350;28;20044;-60
2022/02/11 22:10:41;;;;;;;24.52;11.15;;;;;;;;;;10369671;28;20038;-60
2022/02/11 22:15:42;;;;;;;22.00;10.80;;;;;;;;;;10352911;28;20038;-60
2022/02/11 22:20:42;;;;;;;24.30;11.55;;;;;;;;;;10328698;28;20049;-59
2022/02/11 22:25:43;;;;;;;21.90;11.43;;;;;;;;;;10365204;28;20235;-60
2022/02/11 22:30:43;;;;;;;22.65;11.10;;;;;;;;;;10372530;28;20493;-60
2022/02/11 22:35:43;;;;;;;18.23;10.20;;;;;;;;;;10370387;28;20028;-60
2022/02/11 22:40:44;;;;;;;22.30;11.13;;;;;;;;;;10363982;28;20494;-61
2022/02/11 22:45:45;;;;;;;22.73;11.23;;;;;;;;;;10359419;28;20076;-61
2022/02/11 22:56:06;;;;;;;21.17;10.60;;;;;;;;;;10367870;28;20030;-59
2022/02/11 23:01:07;;;;;;;19.63;11.43;;;;;;;;;;10371295;28;20037;-60
2022/02/11 23:06:07;;;;;;;17.73;10.60;;;;;;;;;;10370559;28;20028;-59
2022/02/11 23:11:08;;;;;;;18.65;10.35;;;;;;;;;;10371303;28;20034;-60
2022/02/11 23:16:09;;;;;;;17.45;10.02;;;;;;;;;;10368781;28;20034;-59
2022/02/11 23:21:10;;;;;;;23.25;11.43;;;;;;;;;;10360377;28;20049;-59
2022/02/11 23:26:12;;;;;;;17.08;11.18;;;;;;;;;;10359091;28;20579;-59
2022/02/11 23:31:13;;;;;;;18.15;10.63;;;;;;;;;;10370311;28;20029;-58
2022/02/11 23:36:14;;;;;;;17.02;10.95;;;;;;;;;;10370184;28;20030;-58
2022/02/11 23:41:14;;;;;;;20.83;10.77;;;;;;;;;;10370145;28;20034;-66
2022/02/11 23:46:15;;;;;;;18.27;9.85;;;;;;;;;;10370184;28;20128;-58
2022/02/11 23:51:15;;;;;;;18.80;10.55;;;;;;;;;;10347221;28;20034;-58
2022/02/11 23:56:16;;;;;;;19.90;10.88;;;;;;;;;;10375505;28;20034;-58
